Bradley International Airport
KBDL : now visible

Airfield :











YOU CAN JOIN US ON...

 
LOGIN :

Register | Disclaimer

   EN    FR    IT 

 









Legend :    VFR   Marginal VFR   IFR   Intensive IFR   Very Intensive IFR
Visi :
Ceiling :
>= 8 km
>= 3000ft
5 to 8 km
1000 to 3000 ft
1500m to 5 km
500 to 1000 ft
800 to 1500m
200 to 500 ft
< 800m
< 200 ft
Symbols :   Thunderstorms  Fog  Heavy snow  Heavy precipitations  Wind > 20 kt






- Airport Elevation : 173 ft
- IATA code : BDL


KBDL - Bradley International

CURRENT METAR :
  • 291251Z 34007KT 10SM BKN034 M01/M08 A3002 RMK AO2 SLP166 T10111083

EXPIRED METARs :
  • 291151Z 34005KT 10SM OVC031 M01/M08 A2999 RMK AO2 SLP157 T10111078 10006 21011 53019 $
  • 291051Z 33007KT 10SM OVC033 M01/M08 A2997 RMK AO2 SLP149 T10061078 $

TAF KBDL
Valid from the 29 at 12:00 until the 30 at 18:00 UTC


291122Z 2912/3018 33006KT P6SM OVC030
FM291300 34007KT P6SM SCT030
FM300300 36006KT P6SM SKC
FM301700 00000KT P6SM FEW250



MET'MAP, your aeronautical weather chart ! - Copyright ORBIFLY December 2007 - Disclaimer

ORBIFLY MET'MAP TEAM :

Programming & Development : Alexandra Zaïnal
Concept & original design : Baudouin d'Aumeries
Assistance for programming : Marc-Olivier Méhu
Technical & hardware support : Manuel Goepfert

Contact : metmap@orbifly.com




SOURCES & CREDITS :

   NOAA       Earth
Advisory